createdAt,value
2023-05-18T00:02:16.123Z,12.77
2023-05-18T00:04:44.225Z,13.90
2023-05-18T00:07:11.625Z,12.57
2023-05-18T00:09:38.910Z,13.00
2023-05-18T00:12:06.758Z,11.65
2023-05-18T00:14:34.193Z,13.65
2023-05-18T00:17:01.902Z,11.90
2023-05-18T00:19:30.369Z,13.05
2023-05-18T00:21:58.028Z,12.27
2023-05-18T00:24:25.617Z,12.55
2023-05-18T00:26:53.046Z,11.77
2023-05-18T00:29:20.449Z,13.00
2023-05-18T00:31:47.823Z,13.38
2023-05-18T00:34:16.777Z,12.27
2023-05-18T00:36:43.982Z,13.13
2023-05-18T00:39:11.398Z,11.45
2023-05-18T00:41:40.144Z,12.38
2023-05-18T00:44:07.449Z,12.13
2023-05-18T00:46:36.603Z,12.48
2023-05-18T00:49:04.600Z,13.10
2023-05-18T00:51:34.428Z,11.50
2023-05-18T00:54:03.860Z,11.88
2023-05-18T00:56:34.322Z,13.20
2023-05-18T00:59:03.529Z,12.40
2023-05-18T01:01:37.059Z,12.15
2023-05-18T01:04:05.000Z,11.40
2023-05-18T01:06:36.028Z,12.73
2023-05-18T01:09:07.134Z,12.63
2023-05-18T01:14:32.005Z,13.00
2023-05-18T01:17:25.997Z,12.30
2023-05-18T01:20:38.166Z,11.20
2023-05-18T01:23:41.792Z,11.77
2023-05-18T01:26:15.862Z,10.60
2023-05-18T01:28:46.705Z,13.95
2023-05-18T01:31:16.534Z,13.05
2023-05-18T01:33:46.938Z,12.65
2023-05-18T01:36:14.355Z,11.88
2023-05-18T01:38:44.381Z,11.82
2023-05-18T01:41:26.318Z,11.13
2023-05-18T01:44:29.329Z,12.63
2023-05-18T01:47:16.786Z,12.50
2023-05-18T01:50:02.840Z,12.80
2023-05-18T01:52:42.930Z,12.20
2023-05-18T01:55:14.437Z,12.02
2023-05-18T01:57:46.596Z,12.25
2023-05-18T02:00:18.844Z,11.55
2023-05-18T02:02:48.237Z,11.15
2023-05-18T02:05:18.092Z,13.18
2023-05-18T02:07:47.442Z,12.95
2023-05-18T02:10:15.524Z,11.02
2023-05-18T02:12:42.985Z,12.13
2023-05-18T02:15:10.791Z,12.07
2023-05-18T02:17:39.033Z,12.73
2023-05-18T02:20:08.311Z,11.52
2023-05-18T02:22:36.535Z,12.77
2023-05-18T02:25:07.783Z,13.05
2023-05-18T02:27:36.724Z,12.93
2023-05-18T02:30:05.883Z,13.52
2023-05-18T02:32:33.229Z,12.77
2023-05-18T02:35:03.728Z,13.15
2023-05-18T03:21:45.583Z,11.05
2023-05-18T03:25:03.263Z,12.40
2023-05-18T03:50:08.984Z,11.23
2023-05-18T03:52:37.364Z,11.55
2023-05-18T03:55:07.558Z,12.23
2023-05-18T03:57:35.032Z,12.82
2023-05-18T04:00:07.685Z,11.02
2023-05-18T04:02:44.600Z,12.77
2023-05-18T04:05:14.488Z,12.75
2023-05-18T04:07:46.719Z,11.30
2023-05-18T04:10:14.975Z,11.25
2023-05-18T04:12:43.728Z,10.95
2023-05-18T04:15:14.875Z,12.63
2023-05-18T04:17:45.838Z,11.40
2023-05-18T04:20:14.690Z,11.73
2023-05-18T04:22:46.781Z,11.55
2023-05-18T04:25:18.100Z,11.52
2023-05-18T04:30:13.936Z,12.10
2023-05-18T04:32:43.388Z,12.70
2023-05-18T04:35:12.116Z,13.10
2023-05-18T04:37:41.055Z,11.93
2023-05-18T04:40:17.403Z,12.77
2023-05-18T04:42:48.249Z,13.35
2023-05-18T04:45:23.044Z,12.18
2023-05-18T08:53:14.809Z,4.53
2023-05-18T08:55:44.232Z,4.90
2023-05-18T08:58:17.816Z,5.30
2023-05-18T09:00:45.352Z,6.15
2023-05-18T09:03:14.486Z,5.28
2023-05-18T09:05:42.704Z,5.60
2023-05-18T09:08:11.202Z,5.68
2023-05-18T09:10:40.151Z,6.18
2023-05-18T09:13:10.070Z,5.43
2023-05-18T09:15:37.915Z,5.03
2023-05-18T09:18:05.324Z,5.15
2023-05-18T09:20:33.164Z,6.45
2023-05-18T09:23:00.674Z,6.13
2023-05-18T09:25:31.076Z,5.18
2023-05-18T09:30:26.156Z,4.57
2023-05-18T09:32:53.855Z,4.30
2023-05-18T09:35:22.808Z,4.00
2023-05-18T09:37:52.280Z,4.03
2023-05-18T09:40:20.782Z,3.45
2023-05-18T09:42:49.724Z,3.45
2023-05-18T09:45:27.066Z,3.88
2023-05-18T09:47:54.747Z,3.88
2023-05-18T09:50:26.741Z,3.70
2023-05-18T09:52:54.277Z,3.33
2023-05-18T09:55:21.611Z,3.13
2023-05-18T09:57:52.333Z,3.33
2023-05-18T10:00:22.289Z,3.47
2023-05-18T10:02:52.899Z,2.95
2023-05-18T14:30:06.500Z,4.15
2023-05-18T14:32:34.163Z,4.07
2023-05-18T14:35:01.745Z,4.13
2023-05-18T14:37:29.165Z,4.35
2023-05-18T14:39:56.461Z,4.18
2023-05-18T14:42:23.888Z,4.10
2023-05-18T14:44:51.553Z,4.35
2023-05-18T14:47:19.107Z,4.38
2023-05-18T14:49:46.408Z,4.32
2023-05-18T14:52:14.420Z,4.65
2023-05-18T14:54:42.472Z,4.75
2023-05-18T14:57:09.990Z,3.70
2023-05-18T14:59:37.311Z,4.10
2023-05-18T15:02:05.028Z,3.83
2023-05-18T15:04:32.422Z,3.88
2023-05-18T15:07:02.186Z,4.25
2023-05-18T15:09:29.445Z,5.87
2023-05-18T15:11:56.817Z,4.63
2023-05-18T15:14:24.305Z,3.97
2023-05-18T15:16:51.805Z,4.88
2023-05-18T15:19:19.411Z,5.43
2023-05-18T15:21:47.020Z,5.20
2023-05-18T15:24:14.619Z,5.00
2023-05-18T15:26:42.454Z,4.93
2023-05-18T15:29:10.067Z,5.22
2023-05-18T15:31:39.832Z,5.15
2023-05-18T15:34:07.348Z,5.57
2023-05-18T15:36:36.483Z,4.53
2023-05-18T15:40:19.128Z,6.30
2023-05-18T18:57:55.691Z,6.63
2023-05-18T19:00:23.307Z,6.40
2023-05-18T19:02:50.783Z,6.68
2023-05-18T19:05:22.772Z,6.25
2023-05-18T19:07:55.045Z,6.65
2023-05-18T19:10:23.355Z,5.80
2023-05-18T19:12:50.753Z,6.35
2023-05-18T19:15:18.568Z,6.00
2023-05-18T19:17:46.382Z,5.93
2023-05-18T19:20:13.765Z,6.18
2023-05-18T19:22:41.476Z,5.40
2023-05-18T19:25:10.019Z,5.78
2023-05-18T19:27:37.707Z,5.90
2023-05-18T19:30:07.334Z,6.07
2023-05-18T19:32:34.831Z,5.75
2023-05-18T19:35:02.595Z,6.00
2023-05-18T19:37:30.193Z,5.03
2023-05-18T19:39:57.722Z,4.65
2023-05-18T19:42:25.132Z,4.55
2023-05-18T19:44:52.494Z,4.38
2023-05-18T19:47:20.054Z,4.60
2023-05-18T19:49:47.909Z,4.63
2023-05-18T19:52:15.971Z,4.28
2023-05-18T19:54:43.466Z,4.35
2023-05-18T19:57:10.883Z,4.30
2023-05-18T19:59:38.675Z,4.35
2023-05-18T20:02:09.240Z,4.75
2023-05-18T20:04:37.693Z,5.13
2023-05-18T20:07:05.439Z,4.03
2023-05-18T20:09:33.070Z,4.30
2023-05-18T20:12:05.537Z,4.05
2023-05-18T20:16:18.729Z,3.78
